Carlotta, California
Current Conditions -  °F | °C
As of 10:10 AM on Thursday 23 Oct 2014 (Local Time) from KFOT Reporting Station
Broken Clouds Broken Clouds  
Wind Chill: 15°   Ceiling: 1900
Heat Index: 15°   Visibility: 4mi
Dew Point: 15°   Wind: 0mph
Humidity: 100%   Direction: NA
Pressure: 29.99"   Gusts: NA
Location:  40.54°N, 124.06°W
Report Text: KFOT 231710Z AUTO 00000KT 4SM BKN019 15/15 A2999 RMK AO1 P0001
Loading
Personal Weather Stations






























Interactive Weather Map
Tropical Storm Tracking
New forecast layout! Learn more

10-Day Weather Forecast

Advertisements
Track Severe Weather on mobile